sensor_id;sensor_type;location;lat;lon;timestamp;P1;durP1;ratioP1;P2;durP2;ratioP2
31347;SDS011;21711;49.708;18.568;2022-07-29T00:01:40;16.60;;;9.05;;
31347;SDS011;21711;49.708;18.568;2022-07-29T00:04:08;21.02;;;9.13;;
31347;SDS011;21711;49.708;18.568;2022-07-29T00:06:36;16.85;;;9.30;;
31347;SDS011;21711;49.708;18.568;2022-07-29T00:09:04;14.50;;;7.70;;
31347;SDS011;21711;49.708;18.568;2022-07-29T00:11:31;14.10;;;7.90;;
31347;SDS011;21711;49.708;18.568;2022-07-29T00:13:59;13.50;;;7.15;;
31347;SDS011;21711;49.708;18.568;2022-07-29T00:16:26;16.95;;;9.40;;
31347;SDS011;21711;49.708;18.568;2022-07-29T00:18:54;11.63;;;7.90;;
31347;SDS011;21711;49.708;18.568;2022-07-29T00:21:25;16.25;;;7.95;;
31347;SDS011;21711;49.708;18.568;2022-07-29T00:23:53;9.55;;;7.03;;
31347;SDS011;21711;49.708;18.568;2022-07-29T00:26:20;12.55;;;6.70;;
31347;SDS011;21711;49.708;18.568;2022-07-29T00:28:47;12.98;;;7.25;;
31347;SDS011;21711;49.708;18.568;2022-07-29T00:31:15;12.20;;;6.38;;
31347;SDS011;21711;49.708;18.568;2022-07-29T00:33:42;13.55;;;6.20;;
31347;SDS011;21711;49.708;18.568;2022-07-29T00:36:09;9.93;;;6.13;;
31347;SDS011;21711;49.708;18.568;2022-07-29T00:38:37;11.85;;;5.70;;
31347;SDS011;21711;49.708;18.568;2022-07-29T00:41:04;12.30;;;5.70;;
31347;SDS011;21711;49.708;18.568;2022-07-29T00:43:32;9.60;;;5.95;;
31347;SDS011;21711;49.708;18.568;2022-07-29T00:46:00;13.27;;;5.68;;
31347;SDS011;21711;49.708;18.568;2022-07-29T00:48:28;7.50;;;5.30;;
31347;SDS011;21711;49.708;18.568;2022-07-29T00:50:56;14.43;;;5.90;;
31347;SDS011;21711;49.708;18.568;2022-07-29T00:53:26;9.30;;;5.10;;
31347;SDS011;21711;49.708;18.568;2022-07-29T00:55:54;9.65;;;5.32;;
31347;SDS011;21711;49.708;18.568;2022-07-29T00:58:22;7.47;;;4.90;;
31347;SDS011;21711;49.708;18.568;2022-07-29T01:00:51;12.80;;;6.10;;
31347;SDS011;21711;49.708;18.568;2022-07-29T01:03:19;9.57;;;5.70;;
31347;SDS011;21711;49.708;18.568;2022-07-29T01:05:46;10.50;;;4.82;;
31347;SDS011;21711;49.708;18.568;2022-07-29T01:10:45;8.00;;;5.28;;
31347;SDS011;21711;49.708;18.568;2022-07-29T01:13:14;11.02;;;5.57;;
31347;SDS011;21711;49.708;18.568;2022-07-29T01:15:43;8.00;;;4.88;;
31347;SDS011;21711;49.708;18.568;2022-07-29T01:18:24;13.27;;;5.38;;
31347;SDS011;21711;49.708;18.568;2022-07-29T01:30:04;12.77;;;5.47;;
31347;SDS011;21711;49.708;18.568;2022-07-29T01:32:36;11.38;;;5.97;;
31347;SDS011;21711;49.708;18.568;2022-07-29T01:35:12;10.77;;;5.65;;
31347;SDS011;21711;49.708;18.568;2022-07-29T01:38:12;8.48;;;5.70;;
31347;SDS011;21711;49.708;18.568;2022-07-29T01:40:47;10.18;;;5.78;;
31347;SDS011;21711;49.708;18.568;2022-07-29T01:43:33;9.95;;;5.63;;
31347;SDS011;21711;49.708;18.568;2022-07-29T01:46:14;14.10;;;6.15;;
31347;SDS011;21711;49.708;18.568;2022-07-29T01:48:55;9.73;;;5.07;;
31347;SDS011;21711;49.708;18.568;2022-07-29T01:51:35;9.63;;;5.53;;
31347;SDS011;21711;49.708;18.568;2022-07-29T01:54:22;13.90;;;5.45;;
31347;SDS011;21711;49.708;18.568;2022-07-29T01:57:03;9.23;;;5.80;;
31347;SDS011;21711;49.708;18.568;2022-07-29T01:59:34;9.15;;;5.75;;
31347;SDS011;21711;49.708;18.568;2022-07-29T02:02:04;13.07;;;5.90;;
31347;SDS011;21711;49.708;18.568;2022-07-29T02:04:35;10.68;;;5.80;;
31347;SDS011;21711;49.708;18.568;2022-07-29T02:07:06;14.02;;;5.55;;
31347;SDS011;21711;49.708;18.568;2022-07-29T02:09:37;7.82;;;5.10;;
31347;SDS011;21711;49.708;18.568;2022-07-29T02:12:06;9.50;;;5.63;;
31347;SDS011;21711;49.708;18.568;2022-07-29T02:14:38;11.98;;;6.85;;
31347;SDS011;21711;49.708;18.568;2022-07-29T02:17:12;9.85;;;5.65;;
31347;SDS011;21711;49.708;18.568;2022-07-29T02:19:41;11.47;;;5.17;;
31347;SDS011;21711;49.708;18.568;2022-07-29T02:22:11;9.85;;;5.43;;
31347;SDS011;21711;49.708;18.568;2022-07-29T02:24:39;8.07;;;5.65;;
31347;SDS011;21711;49.708;18.568;2022-07-29T02:27:09;9.30;;;4.68;;
31347;SDS011;21711;49.708;18.568;2022-07-29T02:29:37;10.70;;;5.82;;
31347;SDS011;21711;49.708;18.568;2022-07-29T02:32:06;10.10;;;5.53;;
31347;SDS011;21711;49.708;18.568;2022-07-29T02:34:37;10.10;;;5.32;;
31347;SDS011;21711;49.708;18.568;2022-07-29T02:37:07;16.40;;;5.70;;
31347;SDS011;21711;49.708;18.568;2022-07-29T02:39:39;8.88;;;4.80;;
31347;SDS011;21711;49.708;18.568;2022-07-29T02:42:11;8.43;;;5.20;;
31347;SDS011;21711;49.708;18.568;2022-07-29T02:44:42;9.93;;;5.57;;
31347;SDS011;21711;49.708;18.568;2022-07-29T02:47:13;9.80;;;5.40;;
31347;SDS011;21711;49.708;18.568;2022-07-29T02:49:57;10.25;;;6.32;;
31347;SDS011;21711;49.708;18.568;2022-07-29T02:52:41;12.05;;;5.75;;
31347;SDS011;21711;49.708;18.568;2022-07-29T02:58:05;8.88;;;6.20;;
31347;SDS011;21711;49.708;18.568;2022-07-29T03:00:38;9.85;;;5.82;;
31347;SDS011;21711;49.708;18.568;2022-07-29T03:03:13;11.52;;;6.43;;
31347;SDS011;21711;49.708;18.568;2022-07-29T03:05:44;11.98;;;6.53;;
31347;SDS011;21711;49.708;18.568;2022-07-29T03:08:12;10.23;;;6.55;;
31347;SDS011;21711;49.708;18.568;2022-07-29T03:10:43;10.80;;;6.40;;
31347;SDS011;21711;49.708;18.568;2022-07-29T03:13:12;10.10;;;5.72;;
31347;SDS011;21711;49.708;18.568;2022-07-29T03:15:42;10.05;;;6.03;;
31347;SDS011;21711;49.708;18.568;2022-07-29T03:18:11;9.60;;;6.15;;
31347;SDS011;21711;49.708;18.568;2022-07-29T03:20:39;11.85;;;5.60;;
31347;SDS011;21711;49.708;18.568;2022-07-29T03:23:07;13.13;;;6.18;;
31347;SDS011;21711;49.708;18.568;2022-07-29T03:25:35;11.25;;;5.80;;
31347;SDS011;21711;49.708;18.568;2022-07-29T03:28:03;10.30;;;6.22;;
31347;SDS011;21711;49.708;18.568;2022-07-29T03:30:30;8.90;;;5.97;;
31347;SDS011;21711;49.708;18.568;2022-07-29T03:32:57;8.88;;;6.38;;
31347;SDS011;21711;49.708;18.568;2022-07-29T03:35:25;9.20;;;6.15;;
31347;SDS011;21711;49.708;18.568;2022-07-29T03:37:52;10.45;;;6.57;;
31347;SDS011;21711;49.708;18.568;2022-07-29T03:40:22;9.00;;;6.85;;
31347;SDS011;21711;49.708;18.568;2022-07-29T03:43:11;14.90;;;6.68;;
31347;SDS011;21711;49.708;18.568;2022-07-29T03:45:45;9.43;;;6.72;;
31347;SDS011;21711;49.708;18.568;2022-07-29T03:48:19;13.52;;;7.05;;
31347;SDS011;21711;49.708;18.568;2022-07-29T03:50:49;12.85;;;7.40;;
31347;SDS011;21711;49.708;18.568;2022-07-29T03:53:17;9.57;;;6.22;;
31347;SDS011;21711;49.708;18.568;2022-07-29T03:55:46;8.88;;;6.10;;
31347;SDS011;21711;49.708;18.568;2022-07-29T03:58:20;10.35;;;6.13;;
31347;SDS011;21711;49.708;18.568;2022-07-29T04:00:49;9.27;;;5.68;;
31347;SDS011;21711;49.708;18.568;2022-07-29T04:03:17;14.10;;;7.32;;
31347;SDS011;21711;49.708;18.568;2022-07-29T04:05:45;11.77;;;6.70;;
31347;SDS011;21711;49.708;18.568;2022-07-29T04:08:32;9.20;;;5.15;;
31347;SDS011;21711;49.708;18.568;2022-07-29T04:11:01;10.90;;;5.57;;
31347;SDS011;21711;49.708;18.568;2022-07-29T04:13:29;9.15;;;5.22;;
31347;SDS011;21711;49.708;18.568;2022-07-29T04:15:58;8.30;;;5.47;;
31347;SDS011;21711;49.708;18.568;2022-07-29T04:18:26;7.85;;;4.45;;
31347;SDS011;21711;49.708;18.568;2022-07-29T04:20:53;12.77;;;5.10;;
31347;SDS011;21711;49.708;18.568;2022-07-29T04:23:21;10.57;;;5.57;;
31347;SDS011;21711;49.708;18.568;2022-07-29T04:25:48;6.60;;;4.75;;
31347;SDS011;21711;49.708;18.568;2022-07-29T04:28:16;9.10;;;5.20;;
31347;SDS011;21711;49.708;18.568;2022-07-29T04:30:43;8.07;;;4.63;;
31347;SDS011;21711;49.708;18.568;2022-07-29T04:33:11;10.25;;;5.30;;
31347;SDS011;21711;49.708;18.568;2022-07-29T04:35:38;7.30;;;4.38;;
31347;SDS011;21711;49.708;18.568;2022-07-29T04:38:15;7.68;;;4.55;;
31347;SDS011;21711;49.708;18.568;2022-07-29T04:40:43;8.15;;;5.10;;
31347;SDS011;21711;49.708;18.568;2022-07-29T04:43:12;9.63;;;5.53;;
31347;SDS011;21711;49.708;18.568;2022-07-29T04:45:41;8.85;;;5.28;;
31347;SDS011;21711;49.708;18.568;2022-07-29T04:48:08;10.75;;;5.15;;
31347;SDS011;21711;49.708;18.568;2022-07-29T04:50:39;8.27;;;5.05;;
31347;SDS011;21711;49.708;18.568;2022-07-29T04:53:07;13.27;;;7.18;;
31347;SDS011;21711;49.708;18.568;2022-07-29T04:55:34;10.48;;;5.47;;
31347;SDS011;21711;49.708;18.568;2022-07-29T04:58:04;7.40;;;5.47;;
31347;SDS011;21711;49.708;18.568;2022-07-29T05:00:31;7.60;;;5.30;;
31347;SDS011;21711;49.708;18.568;2022-07-29T05:02:59;7.35;;;4.93;;
31347;SDS011;21711;49.708;18.568;2022-07-29T05:05:27;7.22;;;5.75;;
31347;SDS011;21711;49.708;18.568;2022-07-29T05:07:54;12.20;;;5.88;;
31347;SDS011;21711;49.708;18.568;2022-07-29T05:10:22;7.97;;;6.07;;
31347;SDS011;21711;49.708;18.568;2022-07-29T05:12:49;12.73;;;5.95;;
31347;SDS011;21711;49.708;18.568;2022-07-29T05:15:17;9.25;;;5.18;;
31347;SDS011;21711;49.708;18.568;2022-07-29T05:17:44;8.10;;;6.07;;
31347;SDS011;21711;49.708;18.568;2022-07-29T05:20:12;8.40;;;5.40;;
31347;SDS011;21711;49.708;18.568;2022-07-29T05:22:39;7.43;;;5.70;;
31347;SDS011;21711;49.708;18.568;2022-07-29T05:25:06;6.65;;;5.53;;
31347;SDS011;21711;49.708;18.568;2022-07-29T05:27:35;7.95;;;5.30;;
31347;SDS011;21711;49.708;18.568;2022-07-29T05:30:03;7.10;;;5.05;;
31347;SDS011;21711;49.708;18.568;2022-07-29T05:32:31;8.15;;;5.30;;
31347;SDS011;21711;49.708;18.568;2022-07-29T05:34:58;10.05;;;5.40;;
31347;SDS011;21711;49.708;18.568;2022-07-29T05:37:26;9.73;;;6.13;;
31347;SDS011;21711;49.708;18.568;2022-07-29T05:39:53;7.95;;;5.55;;
31347;SDS011;21711;49.708;18.568;2022-07-29T05:42:23;9.77;;;6.35;;
31347;SDS011;21711;49.708;18.568;2022-07-29T05:44:51;6.90;;;5.32;;
31347;SDS011;21711;49.708;18.568;2022-07-29T05:47:19;9.65;;;5.75;;
31347;SDS011;21711;49.708;18.568;2022-07-29T05:49:46;11.90;;;5.78;;
31347;SDS011;21711;49.708;18.568;2022-07-29T05:52:14;8.60;;;6.15;;
31347;SDS011;21711;49.708;18.568;2022-07-29T05:54:41;10.75;;;6.80;;
31347;SDS011;21711;49.708;18.568;2022-07-29T05:57:16;11.38;;;6.30;;
31347;SDS011;21711;49.708;18.568;2022-07-29T05:59:44;8.18;;;5.95;;
31347;SDS011;21711;49.708;18.568;2022-07-29T06:02:12;7.97;;;5.40;;
31347;SDS011;21711;49.708;18.568;2022-07-29T06:04:40;5.90;;;5.20;;
31347;SDS011;21711;49.708;18.568;2022-07-29T06:07:08;8.55;;;5.57;;
31347;SDS011;21711;49.708;18.568;2022-07-29T06:09:35;6.70;;;4.68;;
31347;SDS011;21711;49.708;18.568;2022-07-29T06:12:03;10.60;;;5.78;;
31347;SDS011;21711;49.708;18.568;2022-07-29T06:14:31;11.10;;;6.22;;
31347;SDS011;21711;49.708;18.568;2022-07-29T06:16:59;8.02;;;6.25;;
31347;SDS011;21711;49.708;18.568;2022-07-29T06:19:26;9.38;;;6.00;;
31347;SDS011;21711;49.708;18.568;2022-07-29T06:21:53;11.98;;;6.18;;
31347;SDS011;21711;49.708;18.568;2022-07-29T06:24:21;9.25;;;6.15;;
31347;SDS011;21711;49.708;18.568;2022-07-29T06:26:48;10.30;;;6.35;;
31347;SDS011;21711;49.708;18.568;2022-07-29T06:29:15;9.70;;;5.40;;
31347;SDS011;21711;49.708;18.568;2022-07-29T06:31:43;11.82;;;5.57;;
31347;SDS011;21711;49.708;18.568;2022-07-29T06:34:10;7.13;;;6.20;;
31347;SDS011;21711;49.708;18.568;2022-07-29T06:36:38;11.35;;;6.03;;
31347;SDS011;21711;49.708;18.568;2022-07-29T06:39:06;10.40;;;5.97;;
31347;SDS011;21711;49.708;18.568;2022-07-29T06:41:36;11.55;;;5.90;;
31347;SDS011;21711;49.708;18.568;2022-07-29T06:44:08;10.80;;;5.75;;
31347;SDS011;21711;49.708;18.568;2022-07-29T06:46:35;12.55;;;5.55;;
31347;SDS011;21711;49.708;18.568;2022-07-29T06:49:03;7.10;;;5.57;;
31347;SDS011;21711;49.708;18.568;2022-07-29T06:51:31;7.38;;;5.47;;
31347;SDS011;21711;49.708;18.568;2022-07-29T06:53:58;10.65;;;6.22;;
31347;SDS011;21711;49.708;18.568;2022-07-29T06:56:32;9.00;;;5.72;;
31347;SDS011;21711;49.708;18.568;2022-07-29T06:59:06;8.13;;;5.28;;
31347;SDS011;21711;49.708;18.568;2022-07-29T07:04:04;10.73;;;6.38;;
31347;SDS011;21711;49.708;18.568;2022-07-29T07:06:33;13.88;;;6.10;;
31347;SDS011;21711;49.708;18.568;2022-07-29T07:09:00;8.80;;;5.80;;
31347;SDS011;21711;49.708;18.568;2022-07-29T07:11:28;9.88;;;6.70;;
31347;SDS011;21711;49.708;18.568;2022-07-29T07:13:55;7.75;;;5.35;;
31347;SDS011;21711;49.708;18.568;2022-07-29T07:16:29;8.35;;;5.72;;
31347;SDS011;21711;49.708;18.568;2022-07-29T07:18:57;13.23;;;6.63;;
31347;SDS011;21711;49.708;18.568;2022-07-29T07:21:24;11.68;;;6.22;;
31347;SDS011;21711;49.708;18.568;2022-07-29T07:23:55;11.30;;;5.43;;
31347;SDS011;21711;49.708;18.568;2022-07-29T07:26:23;7.72;;;5.85;;
31347;SDS011;21711;49.708;18.568;2022-07-29T07:28:50;8.68;;;5.80;;
31347;SDS011;21711;49.708;18.568;2022-07-29T07:31:17;7.43;;;5.38;;
31347;SDS011;21711;49.708;18.568;2022-07-29T07:33:45;7.40;;;5.78;;
31347;SDS011;21711;49.708;18.568;2022-07-29T07:36:12;9.80;;;6.10;;
31347;SDS011;21711;49.708;18.568;2022-07-29T07:38:40;9.55;;;7.45;;
31347;SDS011;21711;49.708;18.568;2022-07-29T07:41:07;9.63;;;7.80;;
31347;SDS011;21711;49.708;18.568;2022-07-29T07:43:34;9.75;;;7.72;;
31347;SDS011;21711;49.708;18.568;2022-07-29T07:46:02;9.52;;;7.22;;
31347;SDS011;21711;49.708;18.568;2022-07-29T07:48:30;10.65;;;7.90;;
31347;SDS011;21711;49.708;18.568;2022-07-29T07:50:58;9.15;;;7.45;;
31347;SDS011;21711;49.708;18.568;2022-07-29T07:53:25;10.50;;;6.95;;
31347;SDS011;21711;49.708;18.568;2022-07-29T07:55:53;8.50;;;6.53;;
31347;SDS011;21711;49.708;18.568;2022-07-29T07:58:38;12.70;;;7.72;;
31347;SDS011;21711;49.708;18.568;2022-07-29T08:01:05;10.80;;;7.90;;
31347;SDS011;21711;49.708;18.568;2022-07-29T08:03:33;14.00;;;6.68;;
31347;SDS011;21711;49.708;18.568;2022-07-29T08:06:02;10.60;;;6.50;;
31347;SDS011;21711;49.708;18.568;2022-07-29T08:08:30;9.60;;;6.43;;
31347;SDS011;21711;49.708;18.568;2022-07-29T08:10:57;7.75;;;5.63;;
31347;SDS011;21711;49.708;18.568;2022-07-29T08:13:30;9.40;;;6.20;;
31347;SDS011;21711;49.708;18.568;2022-07-29T08:15:58;7.45;;;5.53;;
31347;SDS011;21711;49.708;18.568;2022-07-29T08:18:29;10.35;;;6.40;;
31347;SDS011;21711;49.708;18.568;2022-07-29T08:20:57;9.02;;;5.80;;
31347;SDS011;21711;49.708;18.568;2022-07-29T08:23:25;7.78;;;6.40;;
31347;SDS011;21711;49.708;18.568;2022-07-29T08:26:11;11.45;;;6.00;;
31347;SDS011;21711;49.708;18.568;2022-07-29T08:28:40;7.45;;;6.00;;
31347;SDS011;21711;49.708;18.568;2022-07-29T08:31:12;9.02;;;5.70;;
31347;SDS011;21711;49.708;18.568;2022-07-29T08:33:40;8.88;;;5.97;;
31347;SDS011;21711;49.708;18.568;2022-07-29T08:36:08;7.75;;;6.07;;
31347;SDS011;21711;49.708;18.568;2022-07-29T08:38:36;7.60;;;5.63;;
31347;SDS011;21711;49.708;18.568;2022-07-29T08:41:03;8.73;;;6.05;;
31347;SDS011;21711;49.708;18.568;2022-07-29T08:43:30;6.70;;;5.57;;
31347;SDS011;21711;49.708;18.568;2022-07-29T08:45:58;10.00;;;5.85;;
31347;SDS011;21711;49.708;18.568;2022-07-29T08:48:26;10.98;;;6.70;;
31347;SDS011;21711;49.708;18.568;2022-07-29T08:50:55;7.50;;;6.57;;
31347;SDS011;21711;49.708;18.568;2022-07-29T08:53:24;6.63;;;6.03;;
31347;SDS011;21711;49.708;18.568;2022-07-29T08:55:54;6.82;;;5.35;;
31347;SDS011;21711;49.708;18.568;2022-07-29T08:58:23;8.52;;;5.70;;
31347;SDS011;21711;49.708;18.568;2022-07-29T09:00:54;12.88;;;6.75;;
31347;SDS011;21711;49.708;18.568;2022-07-29T09:03:24;6.05;;;5.40;;
31347;SDS011;21711;49.708;18.568;2022-07-29T09:05:58;8.77;;;6.43;;
31347;SDS011;21711;49.708;18.568;2022-07-29T09:08:25;7.40;;;6.28;;
31347;SDS011;21711;49.708;18.568;2022-07-29T09:10:54;7.05;;;5.97;;
31347;SDS011;21711;49.708;18.568;2022-07-29T09:13:29;5.72;;;5.15;;
31347;SDS011;21711;49.708;18.568;2022-07-29T09:15:56;7.80;;;5.25;;
31347;SDS011;21711;49.708;18.568;2022-07-29T09:21:09;6.70;;;5.35;;
31347;SDS011;21711;49.708;18.568;2022-07-29T09:26:45;8.18;;;6.13;;
31347;SDS011;21711;49.708;18.568;2022-07-29T09:29:14;10.73;;;5.13;;
31347;SDS011;21711;49.708;18.568;2022-07-29T09:31:44;10.80;;;6.10;;
31347;SDS011;21711;49.708;18.568;2022-07-29T09:34:26;8.65;;;6.30;;
31347;SDS011;21711;49.708;18.568;2022-07-29T09:36:57;7.90;;;5.75;;
31347;SDS011;21711;49.708;18.568;2022-07-29T09:39:29;8.38;;;5.85;;
31347;SDS011;21711;49.708;18.568;2022-07-29T09:42:00;6.82;;;5.30;;
31347;SDS011;21711;49.708;18.568;2022-07-29T09:44:41;6.35;;;5.47;;
31347;SDS011;21711;49.708;18.568;2022-07-29T09:47:15;7.18;;;5.35;;
31347;SDS011;21711;49.708;18.568;2022-07-29T09:49:52;6.25;;;5.30;;
31347;SDS011;21711;49.708;18.568;2022-07-29T09:52:26;7.65;;;5.88;;
31347;SDS011;21711;49.708;18.568;2022-07-29T09:55:05;8.98;;;5.53;;
31347;SDS011;21711;49.708;18.568;2022-07-29T09:57:34;9.73;;;5.63;;
31347;SDS011;21711;49.708;18.568;2022-07-29T10:00:09;8.68;;;6.07;;
31347;SDS011;21711;49.708;18.568;2022-07-29T10:02:45;8.00;;;5.60;;
31347;SDS011;21711;49.708;18.568;2022-07-29T10:08:02;7.95;;;6.70;;
31347;SDS011;21711;49.708;18.568;2022-07-29T10:10:34;7.15;;;5.82;;
31347;SDS011;21711;49.708;18.568;2022-07-29T10:13:14;7.60;;;5.85;;
31347;SDS011;21711;49.708;18.568;2022-07-29T10:15:42;7.82;;;5.30;;
31347;SDS011;21711;49.708;18.568;2022-07-29T10:18:13;6.47;;;5.25;;
31347;SDS011;21711;49.708;18.568;2022-07-29T10:20:44;8.52;;;6.00;;
31347;SDS011;21711;49.708;18.568;2022-07-29T10:23:11;7.97;;;5.57;;
31347;SDS011;21711;49.708;18.568;2022-07-29T10:25:39;7.32;;;5.32;;
31347;SDS011;21711;49.708;18.568;2022-07-29T10:28:11;9.02;;;5.70;;
31347;SDS011;21711;49.708;18.568;2022-07-29T10:30:42;10.10;;;6.50;;
31347;SDS011;21711;49.708;18.568;2022-07-29T10:42:23;8.68;;;5.03;;
31347;SDS011;21711;49.708;18.568;2022-07-29T10:44:59;9.00;;;4.88;;
31347;SDS011;21711;49.708;18.568;2022-07-29T10:47:30;5.35;;;4.82;;
31347;SDS011;21711;49.708;18.568;2022-07-29T10:50:05;6.70;;;4.72;;
31347;SDS011;21711;49.708;18.568;2022-07-29T10:55:35;5.78;;;5.05;;
31347;SDS011;21711;49.708;18.568;2022-07-29T11:00:44;6.13;;;4.65;;
31347;SDS011;21711;49.708;18.568;2022-07-29T11:06:22;7.20;;;4.80;;
31347;SDS011;21711;49.708;18.568;2022-07-29T11:12:00;7.30;;;4.80;;
31347;SDS011;21711;49.708;18.568;2022-07-29T11:17:18;7.20;;;4.65;;
31347;SDS011;21711;49.708;18.568;2022-07-29T11:19:46;5.68;;;4.30;;
31347;SDS011;21711;49.708;18.568;2022-07-29T11:25:14;8.80;;;4.30;;
31347;SDS011;21711;49.708;18.568;2022-07-29T11:30:13;7.80;;;5.05;;
31347;SDS011;21711;49.708;18.568;2022-07-29T11:32:43;6.43;;;5.03;;
31347;SDS011;21711;49.708;18.568;2022-07-29T11:37:45;5.55;;;5.00;;
31347;SDS011;21711;49.708;18.568;2022-07-29T11:40:33;7.18;;;4.70;;
31347;SDS011;21711;49.708;18.568;2022-07-29T11:43:01;8.88;;;4.55;;
31347;SDS011;21711;49.708;18.568;2022-07-29T11:45:45;7.57;;;4.88;;
31347;SDS011;21711;49.708;18.568;2022-07-29T11:48:17;5.07;;;4.45;;
31347;SDS011;21711;49.708;18.568;2022-07-29T11:50:55;6.13;;;4.57;;
31347;SDS011;21711;49.708;18.568;2022-07-29T11:53:24;8.40;;;4.97;;
31347;SDS011;21711;49.708;18.568;2022-07-29T11:55:58;6.30;;;4.97;;
31347;SDS011;21711;49.708;18.568;2022-07-29T11:58:28;7.10;;;4.35;;
31347;SDS011;21711;49.708;18.568;2022-07-29T12:00:55;5.90;;;4.65;;
31347;SDS011;21711;49.708;18.568;2022-07-29T12:03:31;4.63;;;4.20;;
31347;SDS011;21711;49.708;18.568;2022-07-29T12:06:14;6.63;;;4.28;;
31347;SDS011;21711;49.708;18.568;2022-07-29T12:08:44;5.88;;;4.47;;
31347;SDS011;21711;49.708;18.568;2022-07-29T12:11:19;5.32;;;4.82;;
31347;SDS011;21711;49.708;18.568;2022-07-29T12:13:52;7.78;;;4.57;;
31347;SDS011;21711;49.708;18.568;2022-07-29T12:16:20;7.10;;;4.65;;
31347;SDS011;21711;49.708;18.568;2022-07-29T12:18:58;6.78;;;4.38;;
31347;SDS011;21711;49.708;18.568;2022-07-29T12:21:28;7.30;;;4.82;;
31347;SDS011;21711;49.708;18.568;2022-07-29T12:24:21;5.25;;;4.45;;
31347;SDS011;21711;49.708;18.568;2022-07-29T12:26:59;6.75;;;4.88;;
31347;SDS011;21711;49.708;18.568;2022-07-29T12:29:27;5.95;;;4.85;;
31347;SDS011;21711;49.708;18.568;2022-07-29T12:32:01;7.40;;;4.18;;
31347;SDS011;21711;49.708;18.568;2022-07-29T12:34:31;5.88;;;3.88;;
31347;SDS011;21711;49.708;18.568;2022-07-29T12:36:58;8.35;;;4.25;;
31347;SDS011;21711;49.708;18.568;2022-07-29T12:39:27;5.60;;;4.30;;
31347;SDS011;21711;49.708;18.568;2022-07-29T12:41:54;10.32;;;4.55;;
31347;SDS011;21711;49.708;18.568;2022-07-29T12:47:31;7.90;;;4.25;;
31347;SDS011;21711;49.708;18.568;2022-07-29T12:50:10;6.57;;;3.60;;
31347;SDS011;21711;49.708;18.568;2022-07-29T12:52:49;6.90;;;3.78;;
31347;SDS011;21711;49.708;18.568;2022-07-29T12:58:31;4.00;;;3.63;;
31347;SDS011;21711;49.708;18.568;2022-07-29T13:01:01;9.32;;;4.07;;
31347;SDS011;21711;49.708;18.568;2022-07-29T13:03:50;8.60;;;4.25;;
31347;SDS011;21711;49.708;18.568;2022-07-29T13:09:12;5.60;;;4.65;;
31347;SDS011;21711;49.708;18.568;2022-07-29T13:11:45;5.60;;;3.85;;
31347;SDS011;21711;49.708;18.568;2022-07-29T13:14:39;7.78;;;4.30;;
31347;SDS011;21711;49.708;18.568;2022-07-29T13:19:51;8.52;;;4.40;;
31347;SDS011;21711;49.708;18.568;2022-07-29T13:22:34;14.00;;;6.78;;
31347;SDS011;21711;49.708;18.568;2022-07-29T13:25:02;8.77;;;3.90;;
31347;SDS011;21711;49.708;18.568;2022-07-29T13:27:30;11.85;;;4.40;;
31347;SDS011;21711;49.708;18.568;2022-07-29T13:30:00;7.30;;;4.78;;
31347;SDS011;21711;49.708;18.568;2022-07-29T13:32:31;6.93;;;4.35;;
31347;SDS011;21711;49.708;18.568;2022-07-29T13:35:01;7.07;;;4.40;;
31347;SDS011;21711;49.708;18.568;2022-07-29T13:37:33;9.50;;;4.53;;
31347;SDS011;21711;49.708;18.568;2022-07-29T13:40:06;9.20;;;4.78;;
31347;SDS011;21711;49.708;18.568;2022-07-29T13:42:34;10.73;;;4.95;;
31347;SDS011;21711;49.708;18.568;2022-07-29T13:45:02;10.00;;;4.93;;
31347;SDS011;21711;49.708;18.568;2022-07-29T13:47:31;6.40;;;4.35;;
31347;SDS011;21711;49.708;18.568;2022-07-29T13:49:59;5.18;;;3.92;;
31347;SDS011;21711;49.708;18.568;2022-07-29T13:52:28;5.70;;;4.25;;
31347;SDS011;21711;49.708;18.568;2022-07-29T13:54:55;5.18;;;4.68;;
31347;SDS011;21711;49.708;18.568;2022-07-29T13:57:23;9.63;;;5.18;;
31347;SDS011;21711;49.708;18.568;2022-07-29T13:59:50;4.93;;;4.43;;
31347;SDS011;21711;49.708;18.568;2022-07-29T14:02:20;8.80;;;4.50;;
31347;SDS011;21711;49.708;18.568;2022-07-29T14:04:52;29.10;;;6.18;;
31347;SDS011;21711;49.708;18.568;2022-07-29T14:07:20;7.78;;;5.38;;
31347;SDS011;21711;49.708;18.568;2022-07-29T14:09:48;45.38;;;10.65;;
31347;SDS011;21711;49.708;18.568;2022-07-29T14:12:16;57.28;;;11.18;;
31347;SDS011;21711;49.708;18.568;2022-07-29T14:14:44;16.30;;;6.15;;
31347;SDS011;21711;49.708;18.568;2022-07-29T14:17:13;9.57;;;4.57;;
31347;SDS011;21711;49.708;18.568;2022-07-29T14:19:41;5.68;;;4.30;;
31347;SDS011;21711;49.708;18.568;2022-07-29T14:22:09;5.72;;;4.30;;
31347;SDS011;21711;49.708;18.568;2022-07-29T14:24:37;6.97;;;4.97;;
31347;SDS011;21711;49.708;18.568;2022-07-29T14:27:05;8.85;;;4.45;;
31347;SDS011;21711;49.708;18.568;2022-07-29T14:29:34;7.73;;;4.90;;
31347;SDS011;21711;49.708;18.568;2022-07-29T14:32:07;4.35;;;3.95;;
31347;SDS011;21711;49.708;18.568;2022-07-29T14:34:37;6.85;;;4.60;;
31347;SDS011;21711;49.708;18.568;2022-07-29T14:37:05;12.98;;;5.15;;
31347;SDS011;21711;49.708;18.568;2022-07-29T14:39:33;7.28;;;4.57;;
31347;SDS011;21711;49.708;18.568;2022-07-29T14:42:08;9.75;;;4.10;;
31347;SDS011;21711;49.708;18.568;2022-07-29T14:47:08;7.45;;;4.10;;
31347;SDS011;21711;49.708;18.568;2022-07-29T14:49:36;6.63;;;4.25;;
31347;SDS011;21711;49.708;18.568;2022-07-29T14:52:03;6.93;;;4.38;;
31347;SDS011;21711;49.708;18.568;2022-07-29T14:54:31;4.78;;;4.05;;
31347;SDS011;21711;49.708;18.568;2022-07-29T14:56:58;7.03;;;4.18;;
31347;SDS011;21711;49.708;18.568;2022-07-29T14:59:26;7.75;;;3.95;;
31347;SDS011;21711;49.708;18.568;2022-07-29T15:01:53;5.43;;;3.67;;
31347;SDS011;21711;49.708;18.568;2022-07-29T15:04:21;5.22;;;3.88;;
31347;SDS011;21711;49.708;18.568;2022-07-29T15:06:49;9.52;;;3.95;;
31347;SDS011;21711;49.708;18.568;2022-07-29T15:09:17;9.10;;;4.13;;
31347;SDS011;21711;49.708;18.568;2022-07-29T15:11:44;10.38;;;4.10;;
31347;SDS011;21711;49.708;18.568;2022-07-29T15:14:11;9.07;;;4.57;;
31347;SDS011;21711;49.708;18.568;2022-07-29T15:16:39;5.45;;;2.75;;
31347;SDS011;21711;49.708;18.568;2022-07-29T15:19:12;3.05;;;2.38;;
31347;SDS011;21711;49.708;18.568;2022-07-29T15:21:39;6.53;;;2.40;;
31347;SDS011;21711;49.708;18.568;2022-07-29T15:24:17;10.02;;;2.10;;
31347;SDS011;21711;49.708;18.568;2022-07-29T15:26:45;3.20;;;1.45;;
31347;SDS011;21711;49.708;18.568;2022-07-29T15:29:13;2.13;;;1.40;;
31347;SDS011;21711;49.708;18.568;2022-07-29T15:31:42;4.00;;;2.33;;
31347;SDS011;21711;49.708;18.568;2022-07-29T15:34:10;4.20;;;1.45;;
31347;SDS011;21711;49.708;18.568;2022-07-29T15:36:37;4.28;;;1.60;;
31347;SDS011;21711;49.708;18.568;2022-07-29T15:39:21;8.30;;;1.40;;
31347;SDS011;21711;49.708;18.568;2022-07-29T15:41:49;2.53;;;1.00;;
31347;SDS011;21711;49.708;18.568;2022-07-29T15:44:17;2.38;;;0.68;;
31347;SDS011;21711;49.708;18.568;2022-07-29T15:46:46;2.97;;;0.77;;
31347;SDS011;21711;49.708;18.568;2022-07-29T15:52:14;1.58;;;0.98;;
31347;SDS011;21711;49.708;18.568;2022-07-29T15:54:51;1.35;;;1.10;;
31347;SDS011;21711;49.708;18.568;2022-07-29T15:57:23;7.70;;;1.30;;
31347;SDS011;21711;49.708;18.568;2022-07-29T15:59:51;1.52;;;1.20;;
31347;SDS011;21711;49.708;18.568;2022-07-29T16:02:18;1.85;;;1.75;;
31347;SDS011;21711;49.708;18.568;2022-07-29T16:04:46;2.17;;;0.93;;